createdAt,value
2018-03-07T00:00:50.066Z,0.00
2018-03-07T00:01:50.013Z,0.00
2018-03-07T00:02:49.993Z,0.00
2018-03-07T00:03:49.922Z,0.00
2018-03-07T00:04:49.925Z,0.00
2018-03-07T00:05:49.864Z,0.00
2018-03-07T00:06:49.809Z,0.00
2018-03-07T00:07:49.782Z,0.00
2018-03-07T00:08:49.738Z,0.00
2018-03-07T00:09:49.682Z,0.00
2018-03-07T00:10:49.642Z,0.00
2018-03-07T00:11:49.575Z,0.00
2018-03-07T00:12:49.571Z,0.00
2018-03-07T00:13:49.495Z,0.00
2018-03-07T00:14:49.508Z,0.00
2018-03-07T00:15:49.414Z,0.00
2018-03-07T00:16:49.410Z,0.00
2018-03-07T00:17:49.337Z,0.00
2018-03-07T00:18:49.315Z,0.00
2018-03-07T00:19:49.227Z,0.00
2018-03-07T00:20:49.230Z,0.00
2018-03-07T00:21:49.152Z,0.00
2018-03-07T00:22:49.120Z,0.00
2018-03-07T00:23:49.050Z,0.00
2018-03-07T00:24:49.046Z,0.00
2018-03-07T00:25:48.983Z,0.00
2018-03-07T00:26:48.974Z,0.00
2018-03-07T00:27:48.929Z,0.00
2018-03-07T00:28:48.904Z,0.00
2018-03-07T00:29:48.842Z,0.00
2018-03-07T00:30:48.771Z,0.00
2018-03-07T00:31:48.723Z,0.00
2018-03-07T00:32:48.686Z,0.00
2018-03-07T00:33:48.653Z,0.00
2018-03-07T00:34:48.609Z,0.00
2018-03-07T00:35:48.583Z,0.00
2018-03-07T00:36:48.504Z,0.00
2018-03-07T00:37:48.465Z,0.00
2018-03-07T00:38:48.540Z,0.00
2018-03-07T00:39:48.397Z,0.00
2018-03-07T00:40:48.354Z,0.00
2018-03-07T00:41:48.364Z,0.00
2018-03-07T00:42:48.259Z,0.00
2018-03-07T00:43:48.218Z,0.00
2018-03-07T00:44:48.184Z,0.00
2018-03-07T00:45:48.270Z,0.00
2018-03-07T00:46:48.069Z,0.00
2018-03-07T00:47:48.075Z,0.00
2018-03-07T00:48:47.994Z,0.00
2018-03-07T00:49:47.970Z,0.00
2018-03-07T00:50:47.910Z,0.00
2018-03-07T00:51:47.896Z,0.00
2018-03-07T00:52:47.831Z,0.00
2018-03-07T00:53:47.782Z,0.00
2018-03-07T00:54:47.754Z,0.00
2018-03-07T00:55:47.722Z,0.00
2018-03-07T00:56:47.670Z,0.00
2018-03-07T00:57:47.600Z,0.00
2018-03-07T00:58:47.614Z,0.00
2018-03-07T00:59:47.565Z,0.00
2018-03-07T01:00:47.471Z,0.00
2018-03-07T01:01:47.453Z,0.00
2018-03-07T01:02:47.385Z,0.00
2018-03-07T01:03:47.347Z,0.00
2018-03-07T01:04:47.313Z,0.00
2018-03-07T01:05:47.298Z,0.00
2018-03-07T01:06:47.249Z,0.00
2018-03-07T01:07:47.173Z,0.00
2018-03-07T01:08:47.156Z,0.00
2018-03-07T01:09:47.098Z,0.00
2018-03-07T01:10:47.066Z,0.00
2018-03-07T01:11:47.028Z,0.00
2018-03-07T01:12:46.998Z,0.00
2018-03-07T01:13:46.993Z,0.00
2018-03-07T01:14:46.887Z,0.00
2018-03-07T01:15:46.837Z,0.00
2018-03-07T01:16:46.792Z,0.00
2018-03-07T01:17:46.807Z,0.00
2018-03-07T01:18:46.700Z,0.00
2018-03-07T01:19:46.667Z,0.00
2018-03-07T01:20:47.295Z,0.00
2018-03-07T01:21:46.566Z,0.00
2018-03-07T01:22:46.533Z,0.00
2018-03-07T01:23:46.480Z,0.00
2018-03-07T01:24:46.495Z,0.00
2018-03-07T01:25:46.405Z,0.00
2018-03-07T01:26:46.381Z,0.00
2018-03-07T01:27:46.321Z,0.00
2018-03-07T01:28:46.263Z,0.00
2018-03-07T01:29:46.328Z,0.00
2018-03-07T01:30:46.200Z,0.00
2018-03-07T01:31:46.186Z,0.00
2018-03-07T01:32:46.096Z,0.00
2018-03-07T01:33:46.059Z,0.00
2018-03-07T01:34:46.021Z,0.00
2018-03-07T01:35:45.968Z,0.00
2018-03-07T01:36:45.940Z,0.00
2018-03-07T01:37:45.902Z,0.00
2018-03-07T01:38:45.930Z,0.00
2018-03-07T01:39:45.900Z,0.00
2018-03-07T01:40:45.760Z,0.00
2018-03-07T01:41:45.730Z,0.00
2018-03-07T01:42:45.756Z,0.00
2018-03-07T01:43:46.303Z,0.00
2018-03-07T01:44:45.577Z,0.00
2018-03-07T01:45:45.599Z,0.00
2018-03-07T01:46:45.503Z,0.00
2018-03-07T01:47:45.505Z,0.00
2018-03-07T01:48:45.437Z,0.00
2018-03-07T01:49:46.309Z,0.00
2018-03-07T01:50:45.314Z,0.00
2018-03-07T01:51:45.310Z,0.00
2018-03-07T01:52:45.329Z,0.00
2018-03-07T01:53:45.261Z,0.00
2018-03-07T01:54:45.203Z,0.00
2018-03-07T01:55:45.114Z,0.00
2018-03-07T01:56:45.054Z,0.00
2018-03-07T01:57:45.017Z,0.00
2018-03-07T01:58:45.018Z,0.00
2018-03-07T01:59:44.940Z,0.00
2018-03-07T02:00:44.904Z,0.00
2018-03-07T02:01:44.867Z,0.00
2018-03-07T02:02:45.808Z,0.00
2018-03-07T02:03:44.781Z,0.00
2018-03-07T02:04:44.715Z,0.00
2018-03-07T02:05:44.725Z,0.00
2018-03-07T02:06:44.629Z,0.00
2018-03-07T02:07:44.619Z,0.00
2018-03-07T02:08:44.547Z,0.00
2018-03-07T02:09:44.534Z,0.00
2018-03-07T02:10:44.456Z,0.00
2018-03-07T02:11:44.427Z,0.00
2018-03-07T02:12:44.366Z,0.00
2018-03-07T02:13:44.476Z,0.00
2018-03-07T02:14:44.300Z,0.00
2018-03-07T02:15:44.266Z,0.00
2018-03-07T02:16:44.189Z,0.00
2018-03-07T02:17:44.183Z,0.00
2018-03-07T02:18:44.097Z,0.00
2018-03-07T02:19:44.052Z,0.00
2018-03-07T02:20:44.047Z,0.00
2018-03-07T02:21:44.022Z,0.00
2018-03-07T02:22:43.950Z,0.00
2018-03-07T02:23:43.947Z,0.00
2018-03-07T02:24:43.892Z,0.00
2018-03-07T02:25:43.847Z,0.00
2018-03-07T02:26:43.800Z,0.00
2018-03-07T02:27:43.749Z,0.00
2018-03-07T02:28:43.684Z,0.00
2018-03-07T02:29:43.722Z,0.00
2018-03-07T02:30:43.676Z,0.00
2018-03-07T02:31:43.587Z,0.00
2018-03-07T02:32:43.541Z,0.00
2018-03-07T02:33:43.471Z,0.00
2018-03-07T02:34:43.439Z,0.00
2018-03-07T02:35:43.374Z,0.00
2018-03-07T02:36:43.324Z,0.00
2018-03-07T02:37:43.297Z,0.00
2018-03-07T02:38:43.257Z,0.00
2018-03-07T02:39:43.230Z,0.00
2018-03-07T02:40:43.229Z,0.00
2018-03-07T02:41:43.122Z,0.00
2018-03-07T02:42:43.062Z,0.00
2018-03-07T02:43:43.055Z,0.00
2018-03-07T02:44:43.016Z,0.00
2018-03-07T02:45:42.951Z,0.00
2018-03-07T02:46:42.880Z,0.00
2018-03-07T02:47:42.893Z,0.00
2018-03-07T02:48:42.801Z,0.00
2018-03-07T02:49:42.771Z,0.00
2018-03-07T02:50:42.719Z,0.00
2018-03-07T02:51:42.691Z,0.00
2018-03-07T02:52:42.630Z,0.00
2018-03-07T02:53:42.613Z,0.00
2018-03-07T02:54:42.554Z,0.00
2018-03-07T02:55:42.522Z,0.00
2018-03-07T02:56:42.478Z,0.00
2018-03-07T02:57:42.412Z,0.00
2018-03-07T02:58:42.359Z,0.00
2018-03-07T02:59:42.363Z,0.00
2018-03-07T03:00:42.292Z,0.00
2018-03-07T03:01:42.248Z,0.00
2018-03-07T03:02:42.179Z,0.00
2018-03-07T03:03:42.148Z,0.00
2018-03-07T03:04:42.258Z,0.00
2018-03-07T03:05:42.048Z,0.00
2018-03-07T03:06:42.008Z,0.00
2018-03-07T03:07:41.997Z,0.00
2018-03-07T03:08:41.940Z,0.00
2018-03-07T03:09:41.896Z,0.00
2018-03-07T03:10:41.856Z,0.00
2018-03-07T03:11:41.813Z,0.00
2018-03-07T03:12:41.778Z,0.00
2018-03-07T03:13:41.746Z,0.00
2018-03-07T03:14:41.695Z,0.00
2018-03-07T03:15:42.320Z,0.00
2018-03-07T03:16:41.585Z,0.00
2018-03-07T03:17:41.544Z,0.00
2018-03-07T03:18:41.494Z,0.00
2018-03-07T03:19:41.448Z,0.00
2018-03-07T03:20:41.442Z,0.00
2018-03-07T03:21:41.351Z,0.00
2018-03-07T03:22:41.354Z,0.00
2018-03-07T03:23:41.260Z,0.00
2018-03-07T03:24:41.255Z,0.00
2018-03-07T03:25:41.188Z,0.00
2018-03-07T03:26:41.269Z,0.00
2018-03-07T03:27:41.087Z,0.00
2018-03-07T03:28:41.103Z,0.00
2018-03-07T03:29:41.035Z,0.00
2018-03-07T03:30:40.959Z,0.00
2018-03-07T03:31:40.923Z,0.00
2018-03-07T03:32:40.902Z,0.00
2018-03-07T03:33:40.843Z,0.00
2018-03-07T03:34:40.786Z,0.00
2018-03-07T03:35:40.778Z,0.00
2018-03-07T03:36:40.697Z,0.00
2018-03-07T03:37:40.669Z,0.00
2018-03-07T03:38:40.607Z,0.00
2018-03-07T03:39:40.557Z,0.00
2018-03-07T03:40:40.585Z,0.00
2018-03-07T03:41:40.533Z,0.00
2018-03-07T03:42:40.428Z,0.00
2018-03-07T03:43:40.369Z,0.00
2018-03-07T03:44:40.329Z,0.00
2018-03-07T03:45:40.288Z,0.00
2018-03-07T03:46:40.296Z,0.00
2018-03-07T03:47:40.209Z,0.00
2018-03-07T03:48:40.154Z,0.00
2018-03-07T03:49:40.126Z,0.00
2018-03-07T03:50:40.091Z,0.00
2018-03-07T03:51:40.045Z,0.00
2018-03-07T03:52:39.979Z,0.00
2018-03-07T03:53:39.929Z,0.00
2018-03-07T03:54:39.897Z,0.00
2018-03-07T03:55:39.883Z,0.00
2018-03-07T03:56:39.867Z,0.00
2018-03-07T03:57:39.752Z,0.00
2018-03-07T03:58:39.753Z,0.00
2018-03-07T03:59:39.666Z,0.00
2018-03-07T04:00:39.652Z,0.00
2018-03-07T04:01:39.576Z,0.00
2018-03-07T04:02:39.531Z,0.00
2018-03-07T04:03:39.539Z,0.00
2018-03-07T04:04:39.445Z,0.00
2018-03-07T04:05:39.411Z,0.00
2018-03-07T04:06:39.401Z,0.00
2018-03-07T04:07:39.315Z,0.00
2018-03-07T04:08:39.311Z,0.00
2018-03-07T04:09:39.214Z,0.00
2018-03-07T04:10:39.196Z,0.00
2018-03-07T04:11:40.920Z,0.00
2018-03-07T04:12:39.107Z,0.00
2018-03-07T04:13:39.047Z,0.00
2018-03-07T04:14:38.990Z,0.00
2018-03-07T04:15:38.957Z,0.00
2018-03-07T04:16:38.901Z,0.00
2018-03-07T04:17:38.864Z,0.00
2018-03-07T04:18:38.808Z,0.00
2018-03-07T04:19:38.770Z,0.00
2018-03-07T04:20:38.749Z,0.00
2018-03-07T04:21:38.723Z,0.00
2018-03-07T04:22:38.651Z,0.00
2018-03-07T04:23:38.595Z,0.00
2018-03-07T04:24:38.567Z,0.00
2018-03-07T04:25:38.531Z,0.00
2018-03-07T04:26:38.462Z,0.00
2018-03-07T04:27:38.406Z,0.00
2018-03-07T04:28:38.378Z,0.00
2018-03-07T04:29:38.350Z,0.00
2018-03-07T04:30:38.312Z,0.00
2018-03-07T04:31:38.235Z,0.00
2018-03-07T04:32:38.258Z,0.00
2018-03-07T04:33:38.130Z,0.00
2018-03-07T04:34:38.123Z,0.00
2018-03-07T04:35:38.072Z,0.00
2018-03-07T04:36:38.093Z,0.00
2018-03-07T04:37:37.969Z,0.00
2018-03-07T04:38:37.933Z,0.00
2018-03-07T04:39:37.901Z,0.00
2018-03-07T04:40:37.823Z,0.00
2018-03-07T04:41:37.775Z,0.00
2018-03-07T04:42:37.730Z,0.00
2018-03-07T04:43:37.677Z,0.00
2018-03-07T04:44:37.684Z,0.00
2018-03-07T04:45:37.614Z,0.00
2018-03-07T04:46:37.555Z,0.00
2018-03-07T04:47:37.517Z,0.00
2018-03-07T04:48:37.471Z,0.00
2018-03-07T04:49:37.450Z,0.00
2018-03-07T04:50:37.400Z,0.00
2018-03-07T04:51:37.312Z,0.00
2018-03-07T04:52:37.274Z,0.00
2018-03-07T04:53:37.244Z,0.00
2018-03-07T04:54:37.206Z,0.00
2018-03-07T04:55:37.157Z,0.00
2018-03-07T04:56:37.104Z,0.00
2018-03-07T04:57:37.047Z,0.00
2018-03-07T04:58:37.019Z,0.00
2018-03-07T04:59:36.956Z,0.00
2018-03-07T05:00:36.922Z,0.00
2018-03-07T05:01:36.909Z,0.00
2018-03-07T05:02:36.904Z,0.00
2018-03-07T05:03:36.785Z,0.00
2018-03-07T05:04:36.728Z,0.00
2018-03-07T05:05:36.708Z,0.00
2018-03-07T05:06:36.657Z,0.00
2018-03-07T05:07:36.621Z,0.00
2018-03-07T05:08:36.573Z,0.00
2018-03-07T05:09:36.542Z,0.00
2018-03-07T05:10:36.506Z,0.00
2018-03-07T05:11:36.414Z,0.00
2018-03-07T05:12:36.383Z,0.00
2018-03-07T05:13:36.330Z,0.00
2018-03-07T05:14:36.281Z,0.00
2018-03-07T05:15:36.240Z,0.00
2018-03-07T05:16:36.173Z,0.00
2018-03-07T05:17:36.160Z,0.00
2018-03-07T05:18:36.116Z,0.00
2018-03-07T05:19:36.054Z,0.00
2018-03-07T05:20:36.007Z,0.00
2018-03-07T05:21:36.020Z,0.00
2018-03-07T05:22:35.911Z,0.00
2018-03-07T05:23:35.921Z,0.00
2018-03-07T05:24:35.810Z,0.00
2018-03-07T05:25:35.776Z,0.00
2018-03-07T05:26:35.732Z,0.00
2018-03-07T05:27:35.705Z,0.00
2018-03-07T05:28:35.633Z,0.00
2018-03-07T05:29:35.613Z,0.00
2018-03-07T05:30:35.562Z,0.00
2018-03-07T05:31:35.505Z,0.00
2018-03-07T05:32:35.443Z,0.00
2018-03-07T05:33:35.441Z,0.00
2018-03-07T05:34:35.370Z,0.00
2018-03-07T05:35:35.351Z,0.00
2018-03-07T05:36:35.308Z,0.00
2018-03-07T05:37:35.241Z,5.63
2018-03-07T05:38:35.208Z,5.63
2018-03-07T05:39:35.145Z,11.25
2018-03-07T05:40:35.137Z,11.25
2018-03-07T05:41:35.033Z,11.25
2018-03-07T05:42:35.012Z,11.25
2018-03-07T05:43:34.956Z,16.88
2018-03-07T05:44:34.917Z,16.88
2018-03-07T05:45:34.864Z,22.50
2018-03-07T05:46:34.838Z,22.50
2018-03-07T05:47:34.792Z,22.50
2018-03-07T05:48:34.744Z,28.13
2018-03-07T05:49:34.715Z,28.13
2018-03-07T05:50:34.634Z,33.75
2018-03-07T05:51:34.591Z,33.75
2018-03-07T05:52:34.558Z,39.38
2018-03-07T05:53:34.497Z,45.00
2018-03-07T05:54:34.480Z,45.00
2018-03-07T05:55:34.409Z,50.63
2018-03-07T05:56:34.374Z,56.25
2018-03-07T05:57:34.335Z,56.25
2018-03-07T05:58:34.326Z,61.88
2018-03-07T05:59:34.280Z,67.50
2018-03-07T06:00:34.212Z,67.50
2018-03-07T06:01:34.213Z,73.13
2018-03-07T06:02:34.091Z,78.75
2018-03-07T06:03:34.040Z,84.38
2018-03-07T06:04:34.037Z,90.00
2018-03-07T06:05:33.959Z,95.63
2018-03-07T06:06:33.941Z,101.25
2018-03-07T06:07:33.863Z,106.88
2018-03-07T06:08:33.861Z,112.50
2018-03-07T06:09:33.772Z,118.13
2018-03-07T06:10:33.738Z,123.75
2018-03-07T06:11:33.698Z,129.38
2018-03-07T06:12:33.646Z,135.00
2018-03-07T06:13:33.594Z,146.25
2018-03-07T06:14:33.570Z,151.88
2018-03-07T06:15:33.513Z,151.88
2018-03-07T06:16:33.480Z,157.50
2018-03-07T06:17:33.438Z,163.13
2018-03-07T06:18:33.376Z,174.38
2018-03-07T06:19:33.325Z,180.00
2018-03-07T06:20:33.298Z,185.63
2018-03-07T06:21:33.244Z,191.25
2018-03-07T06:22:33.184Z,202.50
2018-03-07T06:23:33.155Z,208.13
2018-03-07T06:24:33.115Z,213.75
2018-03-07T06:25:33.067Z,219.38
2018-03-07T06:26:33.018Z,225.00
2018-03-07T06:27:32.980Z,236.25
2018-03-07T06:28:32.943Z,241.88
2018-03-07T06:29:32.901Z,247.50
2018-03-07T06:30:32.842Z,253.13
2018-03-07T06:31:32.779Z,253.13
2018-03-07T06:32:32.763Z,258.75
2018-03-07T06:33:32.721Z,270.00
2018-03-07T06:34:32.652Z,275.63
2018-03-07T06:35:32.599Z,281.25
2018-03-07T06:36:32.690Z,286.88
2018-03-07T06:37:32.540Z,292.50
2018-03-07T06:38:32.487Z,303.75
2018-03-07T06:39:32.421Z,309.38
2018-03-07T06:40:32.384Z,320.63
2018-03-07T06:41:32.346Z,326.25
2018-03-07T06:42:32.333Z,337.50
2018-03-07T06:43:32.263Z,343.13
2018-03-07T06:44:32.230Z,354.38
2018-03-07T06:45:32.190Z,365.63
2018-03-07T06:46:32.109Z,376.88
2018-03-07T06:47:32.156Z,382.50
2018-03-07T06:48:32.025Z,388.13
2018-03-07T06:49:31.986Z,399.38
2018-03-07T06:50:31.932Z,410.63
2018-03-07T06:51:31.914Z,421.88
2018-03-07T06:52:31.866Z,433.13
2018-03-07T06:53:31.810Z,444.38
2018-03-07T06:54:31.750Z,450.00
2018-03-07T06:55:31.715Z,455.63
2018-03-07T06:56:31.678Z,455.63
2018-03-07T06:57:31.625Z,455.63
2018-03-07T06:58:31.588Z,461.25
2018-03-07T06:59:31.564Z,455.63
2018-03-07T07:00:31.498Z,461.25
2018-03-07T07:01:31.450Z,472.50
2018-03-07T07:02:31.415Z,483.75
2018-03-07T07:03:31.383Z,495.00
2018-03-07T07:04:31.329Z,506.25
2018-03-07T07:05:31.289Z,523.13
2018-03-07T07:06:31.238Z,534.38
2018-03-07T07:07:31.197Z,551.25
2018-03-07T07:08:31.152Z,562.50
2018-03-07T07:09:31.208Z,579.38
2018-03-07T07:10:31.171Z,596.25
2018-03-07T07:11:31.104Z,607.50
2018-03-07T07:12:31.008Z,618.75
2018-03-07T07:13:30.952Z,624.38
2018-03-07T07:14:30.902Z,630.00
2018-03-07T07:15:30.862Z,641.25
2018-03-07T07:16:30.814Z,646.88
2018-03-07T07:17:30.769Z,652.50
2018-03-07T07:18:30.715Z,663.75
2018-03-07T07:19:30.691Z,675.00
2018-03-07T07:20:30.633Z,686.25
2018-03-07T07:21:30.598Z,697.50
2018-03-07T07:22:30.545Z,703.13
2018-03-07T07:23:30.499Z,714.38
2018-03-07T07:24:30.475Z,725.63
2018-03-07T07:25:30.435Z,731.25
2018-03-07T07:26:30.376Z,748.13
2018-03-07T07:27:30.335Z,765.00
2018-03-07T07:28:30.321Z,765.00
2018-03-07T07:29:30.259Z,770.63
2018-03-07T07:30:30.221Z,781.88
2018-03-07T07:31:30.160Z,787.50
2018-03-07T07:32:30.136Z,798.75
2018-03-07T07:33:30.081Z,815.63
2018-03-07T07:34:30.038Z,821.25
2018-03-07T07:35:29.992Z,832.50
2018-03-07T07:36:29.951Z,843.75
2018-03-07T07:37:29.939Z,855.00
2018-03-07T07:38:29.878Z,866.25
2018-03-07T07:39:29.826Z,888.75
2018-03-07T07:40:29.800Z,911.25
2018-03-07T07:41:29.751Z,939.38
2018-03-07T07:42:29.689Z,961.88
2018-03-07T07:43:29.669Z,984.38
2018-03-07T07:44:29.626Z,990.00
2018-03-07T07:45:29.587Z,1006.88
2018-03-07T07:46:29.538Z,1029.38
2018-03-07T07:47:29.477Z,1051.88
2018-03-07T07:48:29.444Z,1040.63
2018-03-07T07:49:29.401Z,1018.13
2018-03-07T07:50:29.430Z,1001.25
2018-03-07T07:51:29.348Z,1006.88
2018-03-07T07:52:29.285Z,1012.50
2018-03-07T07:53:29.238Z,1018.13
2018-03-07T07:54:29.228Z,995.63
2018-03-07T07:55:29.145Z,973.13
2018-03-07T07:56:29.103Z,973.13
2018-03-07T07:57:29.107Z,1001.25
2018-03-07T07:58:29.059Z,1035.00
2018-03-07T07:59:29.012Z,1057.50
2018-03-07T08:00:28.957Z,1068.75
2018-03-07T08:01:28.910Z,1057.50
2018-03-07T08:02:28.869Z,1080.00
2018-03-07T08:03:28.866Z,1085.63
2018-03-07T08:04:28.788Z,1074.38
2018-03-07T08:05:28.758Z,1018.13
2018-03-07T08:06:28.703Z,1001.25
2018-03-07T08:07:28.668Z,1012.50
2018-03-07T08:08:28.657Z,1001.25
2018-03-07T08:09:28.618Z,973.13
2018-03-07T08:10:28.563Z,956.25
2018-03-07T08:11:28.498Z,916.88
2018-03-07T08:12:28.462Z,922.50
2018-03-07T08:13:28.423Z,956.25
2018-03-07T08:14:28.374Z,967.50
2018-03-07T08:15:28.344Z,928.13
2018-03-07T08:16:28.326Z,911.25
2018-03-07T08:17:28.288Z,933.75
2018-03-07T08:18:28.227Z,1012.50
2018-03-07T08:19:28.179Z,1096.88
2018-03-07T08:20:28.128Z,1186.88
2018-03-07T08:21:28.102Z,1226.25
2018-03-07T08:22:28.189Z,1203.75
2018-03-07T08:23:28.042Z,1164.38
2018-03-07T08:24:28.012Z,1125.00
2018-03-07T08:25:27.949Z,1108.13
2018-03-07T08:26:27.906Z,1130.63
2018-03-07T08:27:27.870Z,1153.13
2018-03-07T08:28:27.814Z,1192.50
2018-03-07T08:29:27.792Z,1243.13
2018-03-07T08:30:27.733Z,1310.63
2018-03-07T08:31:27.689Z,1383.75
2018-03-07T08:32:27.690Z,1479.38
2018-03-07T08:33:27.657Z,1518.75
2018-03-07T08:34:27.597Z,1541.25
2018-03-07T08:35:27.567Z,1552.50
2018-03-07T08:36:27.504Z,1597.50
2018-03-07T08:37:27.482Z,1665.00
2018-03-07T08:38:27.419Z,1800.00
2018-03-07T08:39:27.390Z,1946.25
2018-03-07T08:40:27.343Z,1974.38
2018-03-07T08:41:27.303Z,1873.13
2018-03-07T08:42:27.261Z,1816.88
2018-03-07T08:43:27.219Z,1760.63
2018-03-07T08:44:27.234Z,1828.13
2018-03-07T08:45:27.163Z,1957.50
2018-03-07T08:46:27.129Z,1968.75
2018-03-07T08:47:27.073Z,1951.88
2018-03-07T08:48:27.044Z,1991.25
2018-03-07T08:49:27.004Z,1777.50
2018-03-07T08:50:26.980Z,1586.25
2018-03-07T08:51:26.957Z,1490.63
2018-03-07T08:52:26.900Z,1462.50
2018-03-07T08:53:26.920Z,1456.88
2018-03-07T08:54:26.820Z,1378.13
2018-03-07T08:55:26.779Z,1209.38
2018-03-07T08:56:26.763Z,1068.75
2018-03-07T08:57:26.739Z,1040.63
2018-03-07T08:58:26.677Z,1040.63
2018-03-07T08:59:27.371Z,1046.25
2018-03-07T09:00:26.606Z,1029.38
2018-03-07T09:01:26.594Z,990.00
2018-03-07T09:02:26.523Z,984.38
2018-03-07T09:03:26.507Z,1006.88
2018-03-07T09:04:26.465Z,1068.75
2018-03-07T09:05:26.426Z,1141.88
2018-03-07T09:06:26.411Z,1203.75
2018-03-07T09:07:26.377Z,1254.38
2018-03-07T09:08:26.319Z,1282.50
2018-03-07T09:09:26.300Z,1293.75
2018-03-07T09:10:26.323Z,1338.75
2018-03-07T09:11:26.206Z,1406.25
2018-03-07T09:12:26.251Z,1468.13
2018-03-07T09:13:26.120Z,1406.25
2018-03-07T09:14:26.106Z,1282.50
2018-03-07T09:15:26.046Z,1198.13
2018-03-07T09:16:26.033Z,1170.00
2018-03-07T09:17:26.007Z,1186.88
2018-03-07T09:18:25.947Z,1254.38
2018-03-07T09:19:25.916Z,1288.13
2018-03-07T09:20:25.869Z,1276.88
2018-03-07T09:21:25.824Z,1231.88
2018-03-07T09:22:25.812Z,1186.88
2018-03-07T09:23:25.757Z,1164.38
2018-03-07T09:24:25.734Z,1153.13
2018-03-07T09:25:25.695Z,1153.13
2018-03-07T09:26:25.655Z,1130.63
2018-03-07T09:27:25.622Z,1080.00
2018-03-07T09:28:25.601Z,1018.13
2018-03-07T09:29:25.613Z,973.13
2018-03-07T09:30:25.605Z,973.13
2018-03-07T09:31:25.479Z,995.63
2018-03-07T09:32:25.454Z,1035.00
2018-03-07T09:33:25.390Z,1074.38
2018-03-07T09:34:25.366Z,1113.75
2018-03-07T09:35:25.340Z,1119.38
2018-03-07T09:36:25.303Z,1119.38
2018-03-07T09:37:25.240Z,1085.63
2018-03-07T09:38:25.220Z,1051.88
2018-03-07T09:39:25.227Z,1046.25
2018-03-07T09:40:25.134Z,1046.25
2018-03-07T09:41:25.110Z,1068.75
2018-03-07T09:42:25.048Z,1096.88
2018-03-07T09:43:25.053Z,1091.25
2018-03-07T09:44:24.992Z,1040.63
2018-03-07T09:45:24.950Z,950.63
2018-03-07T09:46:24.917Z,888.75
2018-03-07T09:47:24.859Z,832.50
2018-03-07T09:48:24.823Z,804.38
2018-03-07T09:49:24.783Z,776.25
2018-03-07T09:50:24.758Z,770.63
2018-03-07T09:51:24.719Z,781.88
2018-03-07T09:52:24.682Z,810.00
2018-03-07T09:53:24.655Z,866.25
2018-03-07T09:54:24.621Z,883.13
2018-03-07T09:55:24.623Z,916.88
2018-03-07T09:56:24.598Z,911.25
2018-03-07T09:57:24.484Z,860.63
2018-03-07T09:58:24.476Z,821.25
2018-03-07T09:59:24.408Z,838.13
2018-03-07T10:00:24.412Z,871.88
2018-03-07T10:01:24.348Z,888.75
2018-03-07T10:02:24.338Z,905.63
2018-03-07T10:03:24.315Z,928.13
2018-03-07T10:04:24.228Z,928.13
2018-03-07T10:05:24.201Z,945.00
2018-03-07T10:06:24.160Z,967.50
2018-03-07T10:07:24.120Z,990.00
2018-03-07T10:08:24.072Z,990.00
2018-03-07T10:09:24.029Z,990.00
2018-03-07T10:10:24.005Z,961.88
2018-03-07T10:11:23.966Z,928.13
2018-03-07T10:12:23.955Z,894.38
2018-03-07T10:13:23.888Z,911.25
2018-03-07T10:14:23.869Z,950.63
2018-03-07T10:15:23.796Z,1029.38
2018-03-07T10:16:23.782Z,1119.38
2018-03-07T10:17:23.798Z,1203.75
2018-03-07T10:18:23.720Z,1305.00
2018-03-07T10:19:23.640Z,1338.75
2018-03-07T10:20:23.616Z,1265.63
2018-03-07T10:21:23.570Z,1198.13
2018-03-07T10:22:23.533Z,1130.63
2018-03-07T10:23:23.564Z,1057.50
2018-03-07T10:24:23.459Z,995.63
2018-03-07T10:25:23.431Z,990.00
2018-03-07T10:26:23.366Z,1051.88
2018-03-07T10:27:23.373Z,1141.88
2018-03-07T10:28:23.300Z,1198.13
2018-03-07T10:29:23.259Z,1203.75
2018-03-07T10:30:23.232Z,1231.88
2018-03-07T10:31:23.181Z,1299.38
2018-03-07T10:32:23.149Z,1366.88
2018-03-07T10:33:23.149Z,1434.38
2018-03-07T10:34:23.081Z,1462.50
2018-03-07T10:35:23.028Z,1451.25
2018-03-07T10:36:23.003Z,1411.88
2018-03-07T10:37:22.954Z,1344.38
2018-03-07T10:38:22.925Z,1310.63
2018-03-07T10:39:22.870Z,1344.38
2018-03-07T10:40:22.838Z,1378.13
2018-03-07T10:41:22.798Z,1417.50
2018-03-07T10:42:22.752Z,1417.50
2018-03-07T10:43:22.720Z,1366.88
2018-03-07T10:44:22.718Z,1316.25
2018-03-07T10:45:22.697Z,1175.63
2018-03-07T10:46:22.620Z,1001.25
2018-03-07T10:47:22.564Z,1035.00
2018-03-07T10:48:22.534Z,1215.00
2018-03-07T10:49:22.489Z,1501.88
2018-03-07T10:50:22.503Z,1794.38
2018-03-07T10:51:22.424Z,1974.38
2018-03-07T10:52:22.407Z,2491.88
2018-03-07T10:53:22.339Z,2475.00
2018-03-07T10:54:22.294Z,3695.63
2018-03-07T10:55:22.297Z,3864.38
2018-03-07T10:56:22.253Z,3706.88
2018-03-07T10:57:22.180Z,3819.38
2018-03-07T10:58:22.155Z,3965.63
2018-03-07T10:59:22.128Z,3729.38
2018-03-07T11:00:22.085Z,3791.25
2018-03-07T11:01:22.075Z,3993.75
2018-03-07T11:02:22.004Z,4055.63
2018-03-07T11:03:21.972Z,3920.63
2018-03-07T11:04:21.926Z,4140.00
2018-03-07T11:05:21.918Z,4224.38
2018-03-07T11:06:21.872Z,4123.13
2018-03-07T11:07:21.851Z,4269.38
2018-03-07T11:08:21.850Z,2503.13
2018-03-07T11:09:21.810Z,3234.38
2018-03-07T11:10:21.735Z,3645.00
2018-03-07T11:11:21.712Z,4089.38
2018-03-07T11:12:21.704Z,4055.63
2018-03-07T11:13:21.663Z,4140.00
2018-03-07T11:14:21.627Z,4415.63
2018-03-07T11:15:21.587Z,4134.38
2018-03-07T11:16:21.565Z,3144.38
2018-03-07T11:17:21.538Z,4021.88
2018-03-07T11:18:21.526Z,4556.25
2018-03-07T11:19:21.473Z,3538.13
2018-03-07T11:20:21.453Z,4561.88
2018-03-07T11:21:21.434Z,3768.75
2018-03-07T11:22:21.401Z,4876.88
2018-03-07T11:23:21.415Z,4640.63
2018-03-07T11:24:21.323Z,4584.38
2018-03-07T11:25:21.325Z,4455.00
2018-03-07T11:26:21.299Z,3943.13
2018-03-07T11:27:21.255Z,4297.50
2018-03-07T11:28:21.240Z,4280.63
2018-03-07T11:29:21.209Z,3515.63
2018-03-07T11:30:21.175Z,4500.00
2018-03-07T11:31:21.141Z,4083.75
2018-03-07T11:32:21.116Z,3560.63
2018-03-07T11:33:21.118Z,3622.50
2018-03-07T11:34:21.104Z,3420.00
2018-03-07T11:35:21.031Z,3121.88
2018-03-07T11:36:21.007Z,3031.88
2018-03-07T11:37:20.990Z,2165.63
2018-03-07T11:38:20.954Z,2137.50
2018-03-07T11:39:20.929Z,2109.38
2018-03-07T11:40:20.906Z,2058.75
2018-03-07T11:41:20.893Z,2036.25
2018-03-07T11:42:20.854Z,2047.50
2018-03-07T11:43:20.832Z,2086.88
2018-03-07T11:44:20.826Z,2137.50
2018-03-07T11:45:20.774Z,2261.25
2018-03-07T11:46:20.743Z,2244.38
2018-03-07T11:47:20.727Z,2244.38
2018-03-07T11:48:20.698Z,2593.13
2018-03-07T11:49:20.666Z,2542.50
2018-03-07T11:50:20.621Z,2463.75
2018-03-07T11:51:20.601Z,2463.75
2018-03-07T11:52:20.571Z,2430.00
2018-03-07T11:53:20.558Z,2452.50
2018-03-07T11:54:20.509Z,2536.88
2018-03-07T11:55:20.503Z,3065.63
2018-03-07T11:56:20.474Z,4646.25
2018-03-07T11:57:20.478Z,4927.50
2018-03-07T11:58:20.375Z,4117.50
2018-03-07T11:59:20.370Z,3234.38
2018-03-07T12:00:20.329Z,3526.88
2018-03-07T12:01:20.307Z,5231.25
2018-03-07T12:02:20.269Z,4955.63
2018-03-07T12:03:20.243Z,4601.25
2018-03-07T12:04:20.198Z,4387.50
2018-03-07T12:05:20.192Z,4438.13
2018-03-07T12:06:20.151Z,4460.63
2018-03-07T12:07:20.130Z,4010.63
2018-03-07T12:08:20.107Z,3915.00
2018-03-07T12:09:20.078Z,3875.63
2018-03-07T12:10:20.039Z,3661.88
2018-03-07T12:11:20.034Z,3740.63
2018-03-07T12:12:20.014Z,3645.00
2018-03-07T12:13:19.980Z,3785.63
2018-03-07T12:14:19.999Z,3673.13
2018-03-07T12:15:19.952Z,3504.38
2018-03-07T12:16:19.889Z,3504.38
2018-03-07T12:17:19.853Z,3453.75
2018-03-07T12:18:19.832Z,3594.38
2018-03-07T12:19:19.817Z,3948.75
2018-03-07T12:20:19.773Z,3645.00
2018-03-07T12:21:19.790Z,3661.88
2018-03-07T12:22:19.721Z,3881.25
2018-03-07T12:23:19.696Z,3735.00
2018-03-07T12:24:19.663Z,3234.38
2018-03-07T12:25:19.640Z,3813.75
2018-03-07T12:26:19.635Z,4128.75
2018-03-07T12:27:19.600Z,3622.50
2018-03-07T12:28:19.580Z,3431.25
2018-03-07T12:29:19.570Z,3273.75
2018-03-07T12:30:19.559Z,3189.38
2018-03-07T12:31:19.508Z,3195.00
2018-03-07T12:32:19.492Z,3543.75
2018-03-07T12:33:19.457Z,3521.25
2018-03-07T12:34:19.419Z,3420.00
2018-03-07T12:35:19.390Z,3583.13
2018-03-07T12:36:19.370Z,3656.25
2018-03-07T12:37:19.341Z,3622.50
2018-03-07T12:38:19.322Z,3684.38
2018-03-07T12:39:19.284Z,3616.88
2018-03-07T12:40:19.258Z,3628.13
2018-03-07T12:41:19.239Z,3858.75
2018-03-07T12:42:19.250Z,3116.25